sensor_id;sensor_type;location;lat;lon;timestamp;P1;durP1;ratioP1;P2;durP2;ratioP2
14241;SDS011;7205;50.864;12.766;2023-03-21T00:01:44;5.50;;;3.90;;
14241;SDS011;7205;50.864;12.766;2023-03-21T00:04:11;4.37;;;4.00;;
14241;SDS011;7205;50.864;12.766;2023-03-21T00:06:38;4.70;;;4.30;;
14241;SDS011;7205;50.864;12.766;2023-03-21T00:09:05;4.10;;;3.80;;
14241;SDS011;7205;50.864;12.766;2023-03-21T00:11:33;4.40;;;4.10;;
14241;SDS011;7205;50.864;12.766;2023-03-21T00:14:00;5.07;;;4.37;;
14241;SDS011;7205;50.864;12.766;2023-03-21T00:16:28;5.23;;;4.50;;
14241;SDS011;7205;50.864;12.766;2023-03-21T00:18:55;5.17;;;4.40;;
14241;SDS011;7205;50.864;12.766;2023-03-21T00:21:23;5.43;;;4.30;;
14241;SDS011;7205;50.864;12.766;2023-03-21T00:23:52;4.70;;;4.30;;
14241;SDS011;7205;50.864;12.766;2023-03-21T00:26:20;5.43;;;4.93;;
14241;SDS011;7205;50.864;12.766;2023-03-21T00:28:49;6.03;;;4.30;;
14241;SDS011;7205;50.864;12.766;2023-03-21T00:31:19;4.17;;;3.87;;
14241;SDS011;7205;50.864;12.766;2023-03-21T00:33:48;3.70;;;3.40;;
14241;SDS011;7205;50.864;12.766;2023-03-21T00:36:15;3.57;;;3.27;;
14241;SDS011;7205;50.864;12.766;2023-03-21T00:38:42;2.83;;;2.63;;
14241;SDS011;7205;50.864;12.766;2023-03-21T00:41:09;2.77;;;2.57;;
14241;SDS011;7205;50.864;12.766;2023-03-21T00:43:38;2.77;;;2.57;;
14241;SDS011;7205;50.864;12.766;2023-03-21T00:46:07;2.80;;;2.20;;
14241;SDS011;7205;50.864;12.766;2023-03-21T00:48:34;4.20;;;2.20;;
14241;SDS011;7205;50.864;12.766;2023-03-21T00:51:01;3.17;;;2.30;;
14241;SDS011;7205;50.864;12.766;2023-03-21T00:53:28;2.63;;;2.17;;
14241;SDS011;7205;50.864;12.766;2023-03-21T00:55:57;1.90;;;1.80;;
14241;SDS011;7205;50.864;12.766;2023-03-21T00:58:24;2.47;;;1.80;;
14241;SDS011;7205;50.864;12.766;2023-03-21T01:00:51;2.10;;;1.90;;
14241;SDS011;7205;50.864;12.766;2023-03-21T01:03:19;2.00;;;1.90;;
14241;SDS011;7205;50.864;12.766;2023-03-21T01:05:46;1.90;;;1.80;;
14241;SDS011;7205;50.864;12.766;2023-03-21T01:08:31;4.27;;;1.93;;
14241;SDS011;7205;50.864;12.766;2023-03-21T01:11:03;2.27;;;1.90;;
14241;SDS011;7205;50.864;12.766;2023-03-21T01:13:32;1.87;;;1.77;;
14241;SDS011;7205;50.864;12.766;2023-03-21T01:15:59;2.20;;;2.00;;
14241;SDS011;7205;50.864;12.766;2023-03-21T01:18:28;2.83;;;1.73;;
14241;SDS011;7205;50.864;12.766;2023-03-21T01:20:57;2.47;;;1.80;;
14241;SDS011;7205;50.864;12.766;2023-03-21T01:23:25;3.07;;;1.87;;
14241;SDS011;7205;50.864;12.766;2023-03-21T01:25:53;3.03;;;1.83;;
14241;SDS011;7205;50.864;12.766;2023-03-21T01:28:21;2.13;;;2.00;;
14241;SDS011;7205;50.864;12.766;2023-03-21T01:30:51;2.27;;;1.90;;
14241;SDS011;7205;50.864;12.766;2023-03-21T01:33:18;2.47;;;2.00;;
14241;SDS011;7205;50.864;12.766;2023-03-21T01:35:48;2.93;;;1.90;;
14241;SDS011;7205;50.864;12.766;2023-03-21T01:38:15;2.10;;;2.00;;
14241;SDS011;7205;50.864;12.766;2023-03-21T01:40:43;2.00;;;1.80;;
14241;SDS011;7205;50.864;12.766;2023-03-21T01:43:24;2.87;;;2.10;;
14241;SDS011;7205;50.864;12.766;2023-03-21T01:49:06;2.37;;;1.97;;
14241;SDS011;7205;50.864;12.766;2023-03-21T01:51:38;2.43;;;1.83;;
14241;SDS011;7205;50.864;12.766;2023-03-21T01:54:08;1.90;;;1.80;;
14241;SDS011;7205;50.864;12.766;2023-03-21T01:56:40;1.97;;;1.77;;
14241;SDS011;7205;50.864;12.766;2023-03-21T01:59:16;2.63;;;2.13;;
14241;SDS011;7205;50.864;12.766;2023-03-21T02:02:06;2.03;;;1.83;;
14241;SDS011;7205;50.864;12.766;2023-03-21T02:04:51;2.17;;;2.07;;
14241;SDS011;7205;50.864;12.766;2023-03-21T02:07:25;2.50;;;2.00;;
14241;SDS011;7205;50.864;12.766;2023-03-21T02:10:01;2.30;;;2.10;;
14241;SDS011;7205;50.864;12.766;2023-03-21T02:12:31;2.43;;;1.90;;
14241;SDS011;7205;50.864;12.766;2023-03-21T02:14:58;2.60;;;1.93;;
14241;SDS011;7205;50.864;12.766;2023-03-21T02:17:55;1.90;;;1.70;;
14241;SDS011;7205;50.864;12.766;2023-03-21T02:23:54;2.33;;;2.00;;
14241;SDS011;7205;50.864;12.766;2023-03-21T02:32:53;3.27;;;2.57;;
14241;SDS011;7205;50.864;12.766;2023-03-21T02:35:42;3.90;;;2.07;;
14241;SDS011;7205;50.864;12.766;2023-03-21T02:38:22;2.80;;;2.60;;
14241;SDS011;7205;50.864;12.766;2023-03-21T02:40:57;3.43;;;3.07;;
14241;SDS011;7205;50.864;12.766;2023-03-21T02:43:31;4.07;;;3.67;;
14241;SDS011;7205;50.864;12.766;2023-03-21T02:46:05;4.03;;;2.87;;
14241;SDS011;7205;50.864;12.766;2023-03-21T02:48:36;3.93;;;2.53;;
14241;SDS011;7205;50.864;12.766;2023-03-21T02:51:07;3.37;;;3.07;;
14241;SDS011;7205;50.864;12.766;2023-03-21T02:53:40;3.63;;;3.00;;
14241;SDS011;7205;50.864;12.766;2023-03-21T02:56:10;3.10;;;2.80;;
14241;SDS011;7205;50.864;12.766;2023-03-21T02:58:43;3.00;;;2.80;;
14241;SDS011;7205;50.864;12.766;2023-03-21T03:01:11;4.37;;;2.90;;
14241;SDS011;7205;50.864;12.766;2023-03-21T03:03:45;3.60;;;3.07;;
14241;SDS011;7205;50.864;12.766;2023-03-21T03:06:14;5.83;;;3.03;;
14241;SDS011;7205;50.864;12.766;2023-03-21T03:08:50;3.47;;;3.17;;
14241;SDS011;7205;50.864;12.766;2023-03-21T03:11:26;3.30;;;3.10;;
14241;SDS011;7205;50.864;12.766;2023-03-21T03:13:58;5.17;;;3.53;;
14241;SDS011;7205;50.864;12.766;2023-03-21T03:17:00;4.87;;;2.97;;
14241;SDS011;7205;50.864;12.766;2023-03-21T03:19:39;4.87;;;3.30;;
14241;SDS011;7205;50.864;12.766;2023-03-21T03:22:16;4.93;;;3.00;;
14241;SDS011;7205;50.864;12.766;2023-03-21T03:24:50;3.83;;;3.53;;
14241;SDS011;7205;50.864;12.766;2023-03-21T03:27:23;3.33;;;3.00;;
14241;SDS011;7205;50.864;12.766;2023-03-21T03:29:54;2.90;;;2.70;;
14241;SDS011;7205;50.864;12.766;2023-03-21T03:32:27;5.53;;;3.20;;
14241;SDS011;7205;50.864;12.766;2023-03-21T03:35:00;6.67;;;3.70;;
14241;SDS011;7205;50.864;12.766;2023-03-21T03:37:31;5.47;;;4.03;;
14241;SDS011;7205;50.864;12.766;2023-03-21T03:40:04;3.13;;;2.90;;
14241;SDS011;7205;50.864;12.766;2023-03-21T03:42:39;4.57;;;3.50;;
14241;SDS011;7205;50.864;12.766;2023-03-21T03:45:17;4.37;;;3.37;;
14241;SDS011;7205;50.864;12.766;2023-03-21T03:47:49;7.37;;;3.47;;
14241;SDS011;7205;50.864;12.766;2023-03-21T03:50:21;4.43;;;3.40;;
14241;SDS011;7205;50.864;12.766;2023-03-21T03:52:55;4.77;;;3.30;;
14241;SDS011;7205;50.864;12.766;2023-03-21T03:55:30;4.53;;;3.50;;
14241;SDS011;7205;50.864;12.766;2023-03-21T03:58:04;6.37;;;3.47;;
14241;SDS011;7205;50.864;12.766;2023-03-21T04:00:31;4.17;;;3.70;;
14241;SDS011;7205;50.864;12.766;2023-03-21T04:02:59;4.03;;;3.67;;
14241;SDS011;7205;50.864;12.766;2023-03-21T04:05:26;4.03;;;3.37;;
14241;SDS011;7205;50.864;12.766;2023-03-21T04:07:53;7.47;;;3.47;;
14241;SDS011;7205;50.864;12.766;2023-03-21T04:10:31;3.90;;;3.60;;
14241;SDS011;7205;50.864;12.766;2023-03-21T04:12:59;5.47;;;4.20;;
14241;SDS011;7205;50.864;12.766;2023-03-21T04:15:31;4.87;;;4.00;;
14241;SDS011;7205;50.864;12.766;2023-03-21T04:18:09;5.23;;;4.30;;
14241;SDS011;7205;50.864;12.766;2023-03-21T04:20:36;8.17;;;4.60;;
14241;SDS011;7205;50.864;12.766;2023-03-21T04:23:04;7.53;;;4.47;;
14241;SDS011;7205;50.864;12.766;2023-03-21T04:25:33;8.17;;;4.83;;
14241;SDS011;7205;50.864;12.766;2023-03-21T04:28:03;6.90;;;4.70;;
14241;SDS011;7205;50.864;12.766;2023-03-21T04:30:37;8.40;;;4.53;;
14241;SDS011;7205;50.864;12.766;2023-03-21T04:33:09;7.87;;;4.27;;
14241;SDS011;7205;50.864;12.766;2023-03-21T04:35:39;6.80;;;4.67;;
14241;SDS011;7205;50.864;12.766;2023-03-21T04:38:07;10.10;;;4.90;;
14241;SDS011;7205;50.864;12.766;2023-03-21T04:40:36;8.20;;;5.17;;
14241;SDS011;7205;50.864;12.766;2023-03-21T04:43:03;6.10;;;4.97;;
14241;SDS011;7205;50.864;12.766;2023-03-21T04:45:29;8.20;;;5.10;;
14241;SDS011;7205;50.864;12.766;2023-03-21T04:47:56;5.77;;;4.83;;
14241;SDS011;7205;50.864;12.766;2023-03-21T04:50:23;6.07;;;4.27;;
14241;SDS011;7205;50.864;12.766;2023-03-21T04:52:50;4.97;;;4.57;;
14241;SDS011;7205;50.864;12.766;2023-03-21T04:55:18;5.87;;;4.87;;
14241;SDS011;7205;50.864;12.766;2023-03-21T04:57:47;7.93;;;4.97;;
14241;SDS011;7205;50.864;12.766;2023-03-21T05:00:14;5.27;;;4.50;;
14241;SDS011;7205;50.864;12.766;2023-03-21T05:02:42;7.23;;;4.90;;
14241;SDS011;7205;50.864;12.766;2023-03-21T05:05:09;6.47;;;4.77;;
14241;SDS011;7205;50.864;12.766;2023-03-21T05:07:36;5.03;;;4.57;;
14241;SDS011;7205;50.864;12.766;2023-03-21T05:10:04;9.53;;;8.13;;
14241;SDS011;7205;50.864;12.766;2023-03-21T05:12:33;8.67;;;6.60;;
14241;SDS011;7205;50.864;12.766;2023-03-21T05:15:01;7.93;;;6.77;;
14241;SDS011;7205;50.864;12.766;2023-03-21T05:17:28;8.63;;;6.33;;
14241;SDS011;7205;50.864;12.766;2023-03-21T05:19:56;7.23;;;5.30;;
14241;SDS011;7205;50.864;12.766;2023-03-21T05:22:23;11.30;;;7.70;;
14241;SDS011;7205;50.864;12.766;2023-03-21T05:24:53;5.90;;;5.10;;
14241;SDS011;7205;50.864;12.766;2023-03-21T05:27:46;8.03;;;5.07;;
14241;SDS011;7205;50.864;12.766;2023-03-21T05:30:21;7.97;;;5.90;;
14241;SDS011;7205;50.864;12.766;2023-03-21T05:32:55;9.67;;;6.20;;
14241;SDS011;7205;50.864;12.766;2023-03-21T05:35:22;6.17;;;5.30;;
14241;SDS011;7205;50.864;12.766;2023-03-21T05:37:50;5.03;;;4.03;;
14241;SDS011;7205;50.864;12.766;2023-03-21T05:40:17;9.47;;;5.50;;
14241;SDS011;7205;50.864;12.766;2023-03-21T05:42:45;11.97;;;6.33;;
14241;SDS011;7205;50.864;12.766;2023-03-21T05:45:22;13.80;;;10.60;;
14241;SDS011;7205;50.864;12.766;2023-03-21T05:47:50;9.30;;;7.80;;
14241;SDS011;7205;50.864;12.766;2023-03-21T05:50:19;7.90;;;5.73;;
14241;SDS011;7205;50.864;12.766;2023-03-21T05:53:00;17.07;;;13.00;;
14241;SDS011;7205;50.864;12.766;2023-03-21T05:55:27;9.60;;;6.37;;
14241;SDS011;7205;50.864;12.766;2023-03-21T05:57:54;10.50;;;5.80;;
14241;SDS011;7205;50.864;12.766;2023-03-21T06:00:27;10.17;;;9.00;;
14241;SDS011;7205;50.864;12.766;2023-03-21T06:03:18;8.70;;;6.97;;
14241;SDS011;7205;50.864;12.766;2023-03-21T06:06:08;10.00;;;6.23;;
14241;SDS011;7205;50.864;12.766;2023-03-21T06:08:41;14.83;;;12.07;;
14241;SDS011;7205;50.864;12.766;2023-03-21T06:11:09;20.80;;;16.10;;
14241;SDS011;7205;50.864;12.766;2023-03-21T06:13:47;13.90;;;7.60;;
14241;SDS011;7205;50.864;12.766;2023-03-21T06:16:15;8.83;;;4.87;;
14241;SDS011;7205;50.864;12.766;2023-03-21T06:18:42;10.67;;;8.43;;
14241;SDS011;7205;50.864;12.766;2023-03-21T06:21:31;6.43;;;4.87;;
14241;SDS011;7205;50.864;12.766;2023-03-21T06:23:58;5.27;;;4.70;;
14241;SDS011;7205;50.864;12.766;2023-03-21T06:26:25;6.27;;;4.83;;
14241;SDS011;7205;50.864;12.766;2023-03-21T06:28:53;5.77;;;5.27;;
14241;SDS011;7205;50.864;12.766;2023-03-21T06:31:21;5.37;;;4.77;;
14241;SDS011;7205;50.864;12.766;2023-03-21T06:33:51;5.70;;;4.77;;
14241;SDS011;7205;50.864;12.766;2023-03-21T06:36:19;5.10;;;4.60;;
14241;SDS011;7205;50.864;12.766;2023-03-21T06:38:47;10.10;;;5.27;;
14241;SDS011;7205;50.864;12.766;2023-03-21T06:41:14;6.10;;;4.70;;
14241;SDS011;7205;50.864;12.766;2023-03-21T06:43:49;6.57;;;5.20;;
14241;SDS011;7205;50.864;12.766;2023-03-21T06:46:17;7.63;;;4.20;;
14241;SDS011;7205;50.864;12.766;2023-03-21T06:48:46;6.10;;;4.60;;
14241;SDS011;7205;50.864;12.766;2023-03-21T06:51:13;5.00;;;4.30;;
14241;SDS011;7205;50.864;12.766;2023-03-21T06:53:56;5.93;;;5.10;;
14241;SDS011;7205;50.864;12.766;2023-03-21T06:56:31;9.87;;;5.27;;
14241;SDS011;7205;50.864;12.766;2023-03-21T06:59:01;6.63;;;4.70;;
14241;SDS011;7205;50.864;12.766;2023-03-21T07:01:44;7.53;;;5.50;;
14241;SDS011;7205;50.864;12.766;2023-03-21T07:04:13;4.60;;;4.30;;
14241;SDS011;7205;50.864;12.766;2023-03-21T07:06:40;5.13;;;3.97;;
14241;SDS011;7205;50.864;12.766;2023-03-21T07:09:07;4.90;;;3.63;;
14241;SDS011;7205;50.864;12.766;2023-03-21T07:11:34;3.83;;;3.43;;
14241;SDS011;7205;50.864;12.766;2023-03-21T07:14:03;7.20;;;4.30;;
14241;SDS011;7205;50.864;12.766;2023-03-21T07:16:31;5.33;;;4.30;;
14241;SDS011;7205;50.864;12.766;2023-03-21T07:18:58;4.27;;;3.80;;
14241;SDS011;7205;50.864;12.766;2023-03-21T07:21:26;5.53;;;3.87;;
14241;SDS011;7205;50.864;12.766;2023-03-21T07:23:53;5.60;;;3.53;;
14241;SDS011;7205;50.864;12.766;2023-03-21T07:26:20;3.80;;;3.40;;
14241;SDS011;7205;50.864;12.766;2023-03-21T07:28:47;4.23;;;3.83;;
14241;SDS011;7205;50.864;12.766;2023-03-21T07:31:15;5.57;;;4.20;;
14241;SDS011;7205;50.864;12.766;2023-03-21T07:33:43;4.53;;;4.00;;
14241;SDS011;7205;50.864;12.766;2023-03-21T07:36:11;6.27;;;3.80;;
14241;SDS011;7205;50.864;12.766;2023-03-21T07:38:45;5.13;;;3.90;;
14241;SDS011;7205;50.864;12.766;2023-03-21T07:41:17;5.20;;;4.07;;
14241;SDS011;7205;50.864;12.766;2023-03-21T07:43:43;4.40;;;4.00;;
14241;SDS011;7205;50.864;12.766;2023-03-21T07:46:10;4.93;;;3.80;;
14241;SDS011;7205;50.864;12.766;2023-03-21T07:48:37;5.53;;;4.50;;
14241;SDS011;7205;50.864;12.766;2023-03-21T07:51:07;4.57;;;4.17;;
14241;SDS011;7205;50.864;12.766;2023-03-21T07:53:34;5.20;;;4.37;;
14241;SDS011;7205;50.864;12.766;2023-03-21T07:56:02;6.50;;;4.63;;
14241;SDS011;7205;50.864;12.766;2023-03-21T07:58:30;4.90;;;4.40;;
14241;SDS011;7205;50.864;12.766;2023-03-21T08:00:59;9.13;;;5.13;;
14241;SDS011;7205;50.864;12.766;2023-03-21T08:03:27;6.13;;;4.60;;
14241;SDS011;7205;50.864;12.766;2023-03-21T08:05:57;8.10;;;5.10;;
14241;SDS011;7205;50.864;12.766;2023-03-21T08:08:24;4.80;;;4.30;;
14241;SDS011;7205;50.864;12.766;2023-03-21T08:10:51;5.23;;;3.90;;
14241;SDS011;7205;50.864;12.766;2023-03-21T08:13:19;5.27;;;4.20;;
14241;SDS011;7205;50.864;12.766;2023-03-21T08:15:47;6.37;;;5.70;;
14241;SDS011;7205;50.864;12.766;2023-03-21T08:18:14;6.13;;;5.47;;
14241;SDS011;7205;50.864;12.766;2023-03-21T08:20:41;7.63;;;5.77;;
14241;SDS011;7205;50.864;12.766;2023-03-21T08:23:07;6.47;;;5.47;;
14241;SDS011;7205;50.864;12.766;2023-03-21T08:25:34;7.27;;;6.53;;
14241;SDS011;7205;50.864;12.766;2023-03-21T08:28:02;6.07;;;4.50;;
14241;SDS011;7205;50.864;12.766;2023-03-21T08:30:30;4.37;;;3.97;;
14241;SDS011;7205;50.864;12.766;2023-03-21T08:32:57;5.47;;;4.50;;
14241;SDS011;7205;50.864;12.766;2023-03-21T08:35:25;5.17;;;4.53;;
14241;SDS011;7205;50.864;12.766;2023-03-21T08:37:52;6.47;;;4.63;;
14241;SDS011;7205;50.864;12.766;2023-03-21T08:40:19;4.47;;;4.07;;
14241;SDS011;7205;50.864;12.766;2023-03-21T08:42:46;6.10;;;5.50;;
14241;SDS011;7205;50.864;12.766;2023-03-21T08:45:13;4.40;;;4.00;;
14241;SDS011;7205;50.864;12.766;2023-03-21T08:47:43;4.80;;;4.37;;
14241;SDS011;7205;50.864;12.766;2023-03-21T08:50:11;5.57;;;4.90;;
14241;SDS011;7205;50.864;12.766;2023-03-21T08:52:40;5.97;;;4.30;;
14241;SDS011;7205;50.864;12.766;2023-03-21T08:55:08;4.63;;;4.17;;
14241;SDS011;7205;50.864;12.766;2023-03-21T08:57:41;4.70;;;4.20;;
14241;SDS011;7205;50.864;12.766;2023-03-21T09:00:12;5.40;;;4.40;;
14241;SDS011;7205;50.864;12.766;2023-03-21T09:02:49;6.10;;;4.50;;
14241;SDS011;7205;50.864;12.766;2023-03-21T09:05:29;4.40;;;4.00;;
14241;SDS011;7205;50.864;12.766;2023-03-21T09:07:58;4.37;;;4.07;;
14241;SDS011;7205;50.864;12.766;2023-03-21T09:10:26;6.27;;;4.37;;
14241;SDS011;7205;50.864;12.766;2023-03-21T09:12:56;4.57;;;3.93;;
14241;SDS011;7205;50.864;12.766;2023-03-21T09:15:25;4.93;;;3.90;;
14241;SDS011;7205;50.864;12.766;2023-03-21T09:18:11;4.87;;;3.83;;
14241;SDS011;7205;50.864;12.766;2023-03-21T09:20:40;4.70;;;3.50;;
14241;SDS011;7205;50.864;12.766;2023-03-21T09:23:12;3.87;;;3.53;;
14241;SDS011;7205;50.864;12.766;2023-03-21T09:25:49;4.30;;;3.47;;
14241;SDS011;7205;50.864;12.766;2023-03-21T09:28:16;4.03;;;3.63;;
14241;SDS011;7205;50.864;12.766;2023-03-21T09:30:43;3.43;;;3.20;;
14241;SDS011;7205;50.864;12.766;2023-03-21T09:33:12;3.20;;;3.00;;
14241;SDS011;7205;50.864;12.766;2023-03-21T09:35:43;3.63;;;3.27;;
14241;SDS011;7205;50.864;12.766;2023-03-21T09:38:15;3.67;;;3.37;;
14241;SDS011;7205;50.864;12.766;2023-03-21T09:41:03;6.43;;;4.27;;
14241;SDS011;7205;50.864;12.766;2023-03-21T09:43:45;4.43;;;3.23;;
14241;SDS011;7205;50.864;12.766;2023-03-21T09:46:29;3.47;;;2.90;;
14241;SDS011;7205;50.864;12.766;2023-03-21T09:49:13;4.33;;;3.07;;
14241;SDS011;7205;50.864;12.766;2023-03-21T09:51:48;4.40;;;4.00;;
14241;SDS011;7205;50.864;12.766;2023-03-21T09:54:21;3.03;;;2.70;;
14241;SDS011;7205;50.864;12.766;2023-03-21T09:56:52;3.70;;;3.17;;
14241;SDS011;7205;50.864;12.766;2023-03-21T09:59:26;4.60;;;4.20;;
14241;SDS011;7205;50.864;12.766;2023-03-21T10:02:19;5.67;;;2.80;;
14241;SDS011;7205;50.864;12.766;2023-03-21T10:04:58;4.87;;;2.83;;
14241;SDS011;7205;50.864;12.766;2023-03-21T10:07:38;4.63;;;3.50;;
14241;SDS011;7205;50.864;12.766;2023-03-21T10:10:11;2.70;;;2.23;;
14241;SDS011;7205;50.864;12.766;2023-03-21T10:12:44;3.07;;;2.40;;
14241;SDS011;7205;50.864;12.766;2023-03-21T10:15:17;2.50;;;2.30;;
14241;SDS011;7205;50.864;12.766;2023-03-21T10:17:54;2.50;;;2.40;;
14241;SDS011;7205;50.864;12.766;2023-03-21T10:20:28;2.07;;;1.97;;
14241;SDS011;7205;50.864;12.766;2023-03-21T10:23:18;2.00;;;1.90;;
14241;SDS011;7205;50.864;12.766;2023-03-21T10:25:59;1.67;;;1.57;;
14241;SDS011;7205;50.864;12.766;2023-03-21T10:28:38;1.43;;;1.33;;
14241;SDS011;7205;50.864;12.766;2023-03-21T10:31:15;1.60;;;1.50;;
14241;SDS011;7205;50.864;12.766;2023-03-21T10:33:45;1.77;;;1.60;;
14241;SDS011;7205;50.864;12.766;2023-03-21T10:36:16;1.70;;;1.60;;
14241;SDS011;7205;50.864;12.766;2023-03-21T10:38:48;2.13;;;1.50;;
14241;SDS011;7205;50.864;12.766;2023-03-21T10:41:17;1.70;;;1.60;;
14241;SDS011;7205;50.864;12.766;2023-03-21T10:44:02;1.43;;;1.30;;
14241;SDS011;7205;50.864;12.766;2023-03-21T10:46:41;1.80;;;1.57;;
14241;SDS011;7205;50.864;12.766;2023-03-21T10:49:22;1.50;;;1.40;;
14241;SDS011;7205;50.864;12.766;2023-03-21T10:52:06;1.90;;;1.80;;
14241;SDS011;7205;50.864;12.766;2023-03-21T10:54:36;5.93;;;5.40;;
14241;SDS011;7205;50.864;12.766;2023-03-21T10:57:04;4.97;;;4.53;;
14241;SDS011;7205;50.864;12.766;2023-03-21T10:59:34;2.23;;;2.13;;
14241;SDS011;7205;50.864;12.766;2023-03-21T11:02:09;1.97;;;1.80;;
14241;SDS011;7205;50.864;12.766;2023-03-21T11:04:42;2.30;;;2.10;;
14241;SDS011;7205;50.864;12.766;2023-03-21T11:07:12;4.77;;;3.20;;
14241;SDS011;7205;50.864;12.766;2023-03-21T11:09:44;2.30;;;2.10;;
14241;SDS011;7205;50.864;12.766;2023-03-21T11:12:13;2.93;;;1.70;;
14241;SDS011;7205;50.864;12.766;2023-03-21T11:14:42;1.60;;;1.50;;
14241;SDS011;7205;50.864;12.766;2023-03-21T11:17:20;1.50;;;1.40;;
14241;SDS011;7205;50.864;12.766;2023-03-21T11:19:49;1.93;;;1.30;;
14241;SDS011;7205;50.864;12.766;2023-03-21T11:22:20;1.80;;;1.63;;
14241;SDS011;7205;50.864;12.766;2023-03-21T11:24:50;1.80;;;1.70;;
14241;SDS011;7205;50.864;12.766;2023-03-21T11:27:19;1.70;;;1.60;;
14241;SDS011;7205;50.864;12.766;2023-03-21T11:29:46;2.40;;;2.20;;
14241;SDS011;7205;50.864;12.766;2023-03-21T11:32:19;1.87;;;1.77;;
14241;SDS011;7205;50.864;12.766;2023-03-21T11:34:50;2.23;;;2.07;;
14241;SDS011;7205;50.864;12.766;2023-03-21T11:37:25;4.23;;;2.20;;
14241;SDS011;7205;50.864;12.766;2023-03-21T11:39:54;2.30;;;1.93;;
14241;SDS011;7205;50.864;12.766;2023-03-21T11:42:26;3.50;;;1.97;;
14241;SDS011;7205;50.864;12.766;2023-03-21T11:45:02;1.40;;;1.30;;
14241;SDS011;7205;50.864;12.766;2023-03-21T11:47:36;2.00;;;1.80;;
14241;SDS011;7205;50.864;12.766;2023-03-21T11:50:08;2.10;;;1.60;;
14241;SDS011;7205;50.864;12.766;2023-03-21T11:52:46;1.73;;;1.63;;
14241;SDS011;7205;50.864;12.766;2023-03-21T11:55:23;1.80;;;1.67;;
14241;SDS011;7205;50.864;12.766;2023-03-21T11:58:05;3.83;;;1.70;;
14241;SDS011;7205;50.864;12.766;2023-03-21T12:00:47;1.70;;;1.60;;
14241;SDS011;7205;50.864;12.766;2023-03-21T12:03:27;2.10;;;1.70;;
14241;SDS011;7205;50.864;12.766;2023-03-21T12:06:23;2.53;;;2.00;;
14241;SDS011;7205;50.864;12.766;2023-03-21T12:08:59;2.60;;;2.20;;
14241;SDS011;7205;50.864;12.766;2023-03-21T12:11:36;3.17;;;1.70;;
14241;SDS011;7205;50.864;12.766;2023-03-21T12:14:11;1.67;;;1.57;;
14241;SDS011;7205;50.864;12.766;2023-03-21T12:16:48;1.80;;;1.70;;
14241;SDS011;7205;50.864;12.766;2023-03-21T12:19:32;1.60;;;1.50;;
14241;SDS011;7205;50.864;12.766;2023-03-21T12:22:14;1.67;;;1.57;;
14241;SDS011;7205;50.864;12.766;2023-03-21T12:24:56;2.40;;;2.20;;
14241;SDS011;7205;50.864;12.766;2023-03-21T12:27:33;1.93;;;1.67;;
14241;SDS011;7205;50.864;12.766;2023-03-21T12:30:10;3.17;;;2.30;;
14241;SDS011;7205;50.864;12.766;2023-03-21T12:32:57;2.33;;;2.23;;
14241;SDS011;7205;50.864;12.766;2023-03-21T12:35:42;2.60;;;1.90;;
14241;SDS011;7205;50.864;12.766;2023-03-21T12:38:27;2.20;;;2.00;;
14241;SDS011;7205;50.864;12.766;2023-03-21T12:43:55;1.77;;;1.67;;
14241;SDS011;7205;50.864;12.766;2023-03-21T12:46:28;3.03;;;1.90;;
14241;SDS011;7205;50.864;12.766;2023-03-21T12:49:02;3.07;;;2.20;;
14241;SDS011;7205;50.864;12.766;2023-03-21T12:51:35;1.93;;;1.80;;
14241;SDS011;7205;50.864;12.766;2023-03-21T12:54:07;2.27;;;1.80;;
14241;SDS011;7205;50.864;12.766;2023-03-21T12:56:43;2.50;;;2.07;;
14241;SDS011;7205;50.864;12.766;2023-03-21T12:59:18;2.30;;;2.10;;
14241;SDS011;7205;50.864;12.766;2023-03-21T13:01:52;1.90;;;1.80;;
14241;SDS011;7205;50.864;12.766;2023-03-21T13:04:34;2.40;;;1.87;;
14241;SDS011;7205;50.864;12.766;2023-03-21T13:07:07;2.30;;;2.10;;
14241;SDS011;7205;50.864;12.766;2023-03-21T13:09:36;2.00;;;1.90;;
14241;SDS011;7205;50.864;12.766;2023-03-21T13:12:12;2.30;;;1.77;;
14241;SDS011;7205;50.864;12.766;2023-03-21T13:15:00;3.73;;;2.87;;
14241;SDS011;7205;50.864;12.766;2023-03-21T13:17:33;4.50;;;3.80;;
14241;SDS011;7205;50.864;12.766;2023-03-21T13:20:11;1.80;;;1.70;;
14241;SDS011;7205;50.864;12.766;2023-03-21T13:22:45;2.30;;;2.20;;
14241;SDS011;7205;50.864;12.766;2023-03-21T13:25:16;3.23;;;3.03;;
14241;SDS011;7205;50.864;12.766;2023-03-21T13:27:51;2.70;;;2.10;;
14241;SDS011;7205;50.864;12.766;2023-03-21T13:30:21;2.63;;;1.67;;
14241;SDS011;7205;50.864;12.766;2023-03-21T13:32:54;4.93;;;4.03;;
14241;SDS011;7205;50.864;12.766;2023-03-21T13:35:32;2.50;;;2.10;;
14241;SDS011;7205;50.864;12.766;2023-03-21T13:38:03;2.00;;;1.80;;
14241;SDS011;7205;50.864;12.766;2023-03-21T13:40:34;2.30;;;2.10;;
14241;SDS011;7205;50.864;12.766;2023-03-21T13:43:22;2.33;;;1.90;;
14241;SDS011;7205;50.864;12.766;2023-03-21T13:46:01;3.47;;;1.90;;
14241;SDS011;7205;50.864;12.766;2023-03-21T13:48:39;2.10;;;1.90;;
14241;SDS011;7205;50.864;12.766;2023-03-21T13:51:07;3.20;;;2.90;;
14241;SDS011;7205;50.864;12.766;2023-03-21T13:53:35;1.80;;;1.70;;
14241;SDS011;7205;50.864;12.766;2023-03-21T13:56:06;1.90;;;1.60;;
14241;SDS011;7205;50.864;12.766;2023-03-21T13:58:58;1.63;;;1.50;;
14241;SDS011;7205;50.864;12.766;2023-03-21T14:01:33;2.47;;;1.70;;
14241;SDS011;7205;50.864;12.766;2023-03-21T14:04:09;1.80;;;1.50;;
14241;SDS011;7205;50.864;12.766;2023-03-21T14:06:41;1.90;;;1.60;;
14241;SDS011;7205;50.864;12.766;2023-03-21T14:09:14;2.07;;;1.70;;
14241;SDS011;7205;50.864;12.766;2023-03-21T14:11:45;4.80;;;1.80;;
14241;SDS011;7205;50.864;12.766;2023-03-21T14:14:18;2.23;;;2.03;;
14241;SDS011;7205;50.864;12.766;2023-03-21T14:16:47;2.50;;;1.87;;
14241;SDS011;7205;50.864;12.766;2023-03-21T14:19:16;4.43;;;3.13;;
14241;SDS011;7205;50.864;12.766;2023-03-21T14:21:47;1.70;;;1.60;;
14241;SDS011;7205;50.864;12.766;2023-03-21T14:24:18;5.93;;;1.90;;
14241;SDS011;7205;50.864;12.766;2023-03-21T14:26:47;2.50;;;1.60;;
14241;SDS011;7205;50.864;12.766;2023-03-21T14:29:21;3.87;;;1.97;;
14241;SDS011;7205;50.864;12.766;2023-03-21T14:31:54;1.93;;;1.70;;
14241;SDS011;7205;50.864;12.766;2023-03-21T14:34:32;2.53;;;1.80;;
14241;SDS011;7205;50.864;12.766;2023-03-21T14:37:00;2.20;;;2.00;;
14241;SDS011;7205;50.864;12.766;2023-03-21T14:39:30;2.57;;;1.87;;
14241;SDS011;7205;50.864;12.766;2023-03-21T14:42:01;2.00;;;1.60;;
14241;SDS011;7205;50.864;12.766;2023-03-21T14:44:35;1.97;;;1.77;;
14241;SDS011;7205;50.864;12.766;2023-03-21T14:47:16;2.87;;;1.80;;
14241;SDS011;7205;50.864;12.766;2023-03-21T14:49:44;2.47;;;1.50;;
14241;SDS011;7205;50.864;12.766;2023-03-21T14:52:14;1.80;;;1.70;;
14241;SDS011;7205;50.864;12.766;2023-03-21T14:54:51;2.90;;;1.97;;
14241;SDS011;7205;50.864;12.766;2023-03-21T14:57:21;2.73;;;1.60;;
14241;SDS011;7205;50.864;12.766;2023-03-21T14:59:53;2.33;;;1.73;;
14241;SDS011;7205;50.864;12.766;2023-03-21T15:02:34;2.43;;;1.90;;
14241;SDS011;7205;50.864;12.766;2023-03-21T15:05:07;2.23;;;1.40;;
14241;SDS011;7205;50.864;12.766;2023-03-21T15:07:37;1.80;;;1.60;;
14241;SDS011;7205;50.864;12.766;2023-03-21T15:10:04;4.40;;;2.00;;
14241;SDS011;7205;50.864;12.766;2023-03-21T15:12:49;1.90;;;1.80;;
14241;SDS011;7205;50.864;12.766;2023-03-21T15:18:06;4.67;;;1.63;;
14241;SDS011;7205;50.864;12.766;2023-03-21T15:20:34;2.00;;;1.70;;
14241;SDS011;7205;50.864;12.766;2023-03-21T15:23:06;3.67;;;1.63;;
14241;SDS011;7205;50.864;12.766;2023-03-21T15:25:40;1.70;;;1.60;;
14241;SDS011;7205;50.864;12.766;2023-03-21T15:28:08;2.00;;;1.90;;
14241;SDS011;7205;50.864;12.766;2023-03-21T15:30:55;2.63;;;1.40;;
14241;SDS011;7205;50.864;12.766;2023-03-21T15:33:37;4.10;;;2.10;;
14241;SDS011;7205;50.864;12.766;2023-03-21T15:36:07;4.07;;;2.17;;
14241;SDS011;7205;50.864;12.766;2023-03-21T15:38:47;4.03;;;2.27;;